Time;durP1;ratioP1;P1;durP2;ratioP2;P2;SDS_P1;SDS_P2;PMS_P1;PMS_P2;Temp;Humidity;BMP_temperature;BMP_pressure;BME280_temperature;BME280_humidity;BME280_pressure;Samples;Min_cycle;Max_cycle;Signal;HPM_P1;HPM_P2
2024/03/30 00:02:26;;;;;;;1.10;0.80;;;;;;;11.54;97.20;99178.97;5050211;28;20199;-83
2024/03/30 00:04:59;;;;;;;0.90;0.80;;;;;;;11.53;97.38;99174.63;5057253;28;20690;-82
2024/03/30 00:07:28;;;;;;;1.23;0.90;;;;;;;11.54;97.79;99179.81;5054792;28;20266;-82
2024/03/30 00:09:57;;;;;;;1.23;1.03;;;;;;;11.54;97.54;99171.81;5055929;28;20231;-82
2024/03/30 00:12:25;;;;;;;2.80;1.00;;;;;;;11.51;98.19;99169.44;5053908;28;20663;-82
2024/03/30 00:15:04;;;;;;;1.70;1.07;;;;;;;11.48;97.92;99172.38;5053917;28;20221;-81
2024/03/30 00:17:32;;;;;;;0.90;0.90;;;;;;;11.50;97.98;99167.75;5054860;28;20256;-83
2024/03/30 00:20:16;;;;;;;1.47;1.20;;;;;;;11.50;97.87;99165.06;5050469;28;20207;-82
2024/03/30 00:23:05;;;;;;;1.90;0.90;;;;;;;11.44;97.60;99147.84;5034196;28;20208;-83
2024/03/30 00:25:45;;;;;;;;;;;;;;;;;;;;;
2024/03/30 00:28:18;;;;;;;2.20;0.80;;;;;;;11.38;98.00;99167.03;5053766;28;20766;-83
2024/03/30 00:30:52;;;;;;;0.80;0.73;;;;;;;11.38;98.19;99182.19;5050530;28;20210;-83
2024/03/30 00:33:20;;;;;;;0.80;0.60;;;;;;;11.37;98.26;99173.34;5052846;28;20208;-82
2024/03/30 00:35:54;;;;;;;1.23;0.83;;;;;;;11.37;98.27;99169.84;5052946;28;20847;-83
2024/03/30 00:38:26;;;;;;;1.00;0.80;;;;;;;11.35;98.47;99188.63;5049348;28;20285;-83
2024/03/30 00:41:06;;;;;;;0.50;0.50;;;;;;;11.37;98.91;99178.69;5062038;28;20213;-82
2024/03/30 00:43:38;;;;;;;0.70;0.70;;;;;;;11.33;99.54;99181.75;5052552;28;20278;-83
2024/03/30 00:46:18;;;;;;;0.93;0.70;;;;;;;11.28;99.75;99182.19;5058800;28;20219;-80
2024/03/30 00:48:51;;;;;;;1.83;0.73;;;;;;;11.26;100.00;99199.28;5052573;28;20224;-81
2024/03/30 00:51:26;;;;;;;0.57;0.57;;;;;;;11.24;100.00;99210.09;5054529;28;20768;-83
2024/03/30 00:53:54;;;;;;;2.17;1.03;;;;;;;11.24;100.00;99211.91;5057313;28;20221;-83
2024/03/30 00:56:29;;;;;;;5.03;2.73;;;;;;;11.24;100.00;99235.88;5059502;28;20227;-84
2024/03/30 00:58:56;;;;;;;6.83;2.60;;;;;;;11.24;100.00;99263.38;5052919;28;20203;-83
2024/03/30 01:04:19;;;;;;;1.23;0.97;;;;;;;11.22;100.00;99249.34;5052629;28;20231;-82
2024/03/30 01:06:50;;;;;;;2.40;0.97;;;;;;;11.22;100.00;99229.84;5054465;28;20718;-81
2024/03/30 01:09:21;;;;;;;1.10;0.90;;;;;;;11.21;100.00;99253.00;5050725;28;20611;-82
2024/03/30 01:11:47;;;;;;;2.60;1.20;;;;;;;11.21;100.00;99263.66;5047041;28;20303;-80
2024/03/30 01:14:17;;;;;;;2.10;0.80;;;;;;;11.21;100.00;99260.97;5046194;28;20228;-84
2024/03/30 01:16:45;;;;;;;1.80;1.00;;;;;;;11.21;100.00;99258.31;5044519;28;20756;-83
2024/03/30 01:19:12;;;;;;;3.20;1.00;;;;;;;11.20;100.00;99291.28;5044467;28;20645;-83
2024/03/30 01:21:40;;;;;;;2.83;1.50;;;;;;;11.19;100.00;99300.25;5044804;28;20204;-83
2024/03/30 01:24:08;;;;;;;1.20;0.90;;;;;;;11.21;100.00;99278.78;5037857;28;20605;-83
2024/03/30 01:26:35;;;;;;;1.80;0.97;;;;;;;11.21;100.00;99278.78;5049993;28;20204;-83
2024/03/30 01:29:06;;;;;;;2.13;0.90;;;;;;;11.19;100.00;99262.09;5045509;28;20293;-83
2024/03/30 01:31:32;;;;;;;1.10;0.80;;;;;;;11.20;100.00;99251.28;5046605;28;20203;-82
2024/03/30 01:34:01;;;;;;;2.63;1.50;;;;;;;11.16;100.00;99244.53;5048701;28;20305;-83
2024/03/30 01:36:26;;;;;;;2.07;1.10;;;;;;;11.08;100.00;99241.72;5047572;28;20306;-82
2024/03/30 01:38:53;;;;;;;1.30;0.90;;;;;;;11.02;100.00;99237.78;5043289;28;20292;-83
2024/03/30 01:41:19;;;;;;;1.00;0.90;;;;;;;10.98;100.00;99231.00;5052605;28;20221;-81
2024/03/30 01:43:46;;;;;;;1.87;1.00;;;;;;;10.97;100.00;99218.66;5048868;28;20263;-82
2024/03/30 01:46:12;;;;;;;1.47;0.80;;;;;;;10.95;100.00;99204.63;5056063;28;20686;-82
2024/03/30 01:48:38;;;;;;;1.13;1.00;;;;;;;10.92;100.00;99191.63;5054482;28;20294;-82
2024/03/30 01:51:06;;;;;;;1.10;0.87;;;;;;;10.89;100.00;99199.88;5056388;28;20203;-81
2024/03/30 01:53:33;;;;;;;1.10;0.80;;;;;;;10.86;100.00;99199.28;5060013;28;20223;-82
2024/03/30 01:55:58;;;;;;;1.10;0.90;;;;;;;10.84;100.00;99203.91;5059545;28;20324;-82
2024/03/30 01:58:27;;;;;;;1.83;1.00;;;;;;;10.82;100.00;99203.19;5057454;28;20214;-82
2024/03/30 02:00:55;;;;;;;1.93;1.23;;;;;;;10.79;100.00;99205.13;5062345;28;20228;-81
2024/03/30 02:03:24;;;;;;;1.90;1.10;;;;;;;10.79;100.00;99204.28;5061014;28;20208;-82
2024/03/30 02:05:52;;;;;;;1.93;1.40;;;;;;;10.75;100.00;99194.88;5064672;28;20195;-81
2024/03/30 02:08:22;;;;;;;3.00;1.40;;;;;;;10.74;100.00;99195.88;5062921;28;20298;-81
2024/03/30 02:10:49;;;;;;;1.60;1.40;;;;;;;10.71;100.00;99194.34;5058936;28;20201;-81
2024/03/30 02:13:16;;;;;;;3.13;2.33;;;;;;;10.70;100.00;99183.81;5061100;28;20233;-81
2024/03/30 02:15:42;;;;;;;6.97;4.63;;;;;;;10.68;100.00;99180.44;5057224;28;20203;-81
2024/03/30 02:18:08;;;;;;;6.10;3.63;;;;;;;10.68;100.00;99180.44;5061701;28;20672;-81
2024/03/30 02:20:34;;;;;;;7.10;4.80;;;;;;;10.66;100.00;99188.56;5065340;28;20208;-82
2024/03/30 02:23:01;;;;;;;6.43;4.50;;;;;;;10.64;100.00;99176.34;5058883;28;20227;-82
2024/03/30 02:25:28;;;;;;;4.97;3.40;;;;;;;10.63;100.00;99190.63;5062676;28;20229;-82
2024/03/30 02:27:55;;;;;;;5.37;3.70;;;;;;;10.56;100.00;99189.50;5057119;28;20222;-81
2024/03/30 02:30:24;;;;;;;1.90;1.70;;;;;;;10.52;100.00;99164.94;5060339;28;20211;-81
2024/03/30 02:32:52;;;;;;;1.37;1.27;;;;;;;10.49;100.00;99169.69;5055117;28;20253;-82
2024/03/30 02:35:17;;;;;;;1.33;1.23;;;;;;;10.44;100.00;99157.63;5058514;28;20245;-81
2024/03/30 02:37:46;;;;;;;1.60;1.43;;;;;;;10.42;100.00;99167.56;5064959;28;20308;-81
2024/03/30 02:40:12;;;;;;;1.53;1.37;;;;;;;10.39;100.00;99164.34;5073333;28;20197;-82
2024/03/30 02:42:40;;;;;;;2.40;1.73;;;;;;;10.37;100.00;99169.78;5062163;28;20227;-82
2024/03/30 02:45:07;;;;;;;2.23;1.70;;;;;;;10.35;100.00;99171.72;5061354;28;20261;-81
2024/03/30 02:47:33;;;;;;;2.00;1.53;;;;;;;10.32;100.00;99177.31;5061427;28;20282;-82
2024/03/30 02:49:59;;;;;;;2.43;2.10;;;;;;;10.30;100.00;99176.59;5062968;28;20207;-82
2024/03/30 02:52:26;;;;;;;2.07;1.63;;;;;;;10.28;100.00;99172.38;5069035;28;20210;-81
2024/03/30 02:54:52;;;;;;;2.60;1.93;;;;;;;10.26;100.00;99164.53;5064980;28;20232;-81
2024/03/30 02:57:18;;;;;;;2.00;1.73;;;;;;;10.24;100.00;99154.97;5063469;28;20263;-81
2024/03/30 02:59:45;;;;;;;2.47;1.90;;;;;;;10.19;100.00;99158.06;5063206;28;20265;-81
2024/03/30 03:02:12;;;;;;;3.13;1.80;;;;;;;10.18;100.00;99155.50;5054032;28;20210;-83
2024/03/30 03:04:38;;;;;;;2.67;1.80;;;;;;;10.15;100.00;99147.78;5058698;28;20614;-81
2024/03/30 03:07:07;;;;;;;2.20;2.00;;;;;;;10.12;100.00;99150.69;5060770;28;20274;-84
2024/03/30 03:09:33;;;;;;;3.03;2.20;;;;;;;10.09;100.00;99151.78;5062901;28;20262;-83
2024/03/30 03:12:00;;;;;;;1.93;1.73;;;;;;;10.08;100.00;99155.41;5061498;28;20386;-83
2024/03/30 03:14:25;;;;;;;2.53;2.33;;;;;;;10.06;100.00;99146.72;5058859;28;20353;-83
2024/03/30 03:16:53;;;;;;;3.07;2.40;;;;;;;10.03;100.00;99147.00;5060998;28;20222;-83
2024/03/30 03:19:19;;;;;;;3.17;2.13;;;;;;;10.01;100.00;99146.28;5060437;28;20198;-83
2024/03/30 03:21:46;;;;;;;5.50;2.40;;;;;;;10.00;100.00;99141.94;5062061;28;20209;-82
2024/03/30 03:24:11;;;;;;;3.20;2.30;;;;;;;9.96;100.00;99138.69;5057868;28;20337;-82
2024/03/30 03:26:38;;;;;;;2.70;2.50;;;;;;;9.94;100.00;99126.50;5063813;28;20218;-82
2024/03/30 03:29:04;;;;;;;2.43;2.23;;;;;;;9.90;100.00;99131.22;5057306;28;20213;-83
2024/03/30 03:31:30;;;;;;;4.00;2.60;;;;;;;9.88;100.00;99127.84;5059424;28;20210;-82
2024/03/30 03:33:57;;;;;;;2.60;2.20;;;;;;;9.87;100.00;99120.00;5063421;28;20225;-83
2024/03/30 03:36:24;;;;;;;2.40;2.20;;;;;;;9.83;100.00;99116.78;5064743;28;20257;-84
2024/03/30 03:38:50;;;;;;;2.90;2.50;;;;;;;9.81;100.00;99110.75;5059207;28;20198;-82
2024/03/30 03:41:16;;;;;;;2.87;2.30;;;;;;;9.79;100.00;99123.31;5062362;28;20263;-81
2024/03/30 03:43:43;;;;;;;3.17;2.73;;;;;;;9.75;100.00;99116.56;5063024;28;20225;-82
2024/03/30 03:46:09;;;;;;;3.00;2.57;;;;;;;9.71;100.00;99109.81;5061968;28;20209;-82
2024/03/30 03:48:35;;;;;;;2.80;2.60;;;;;;;9.69;100.00;99109.09;5058925;28;20952;-81
2024/03/30 03:51:03;;;;;;;2.97;2.67;;;;;;;9.66;100.00;99106.72;5061906;28;20216;-82
2024/03/30 03:53:29;;;;;;;3.00;2.40;;;;;;;9.63;100.00;99102.50;5063947;28;21327;-82
2024/03/30 03:55:56;;;;;;;3.87;2.70;;;;;;;9.63;100.00;99107.81;5066566;28;20210;-82
2024/03/30 03:58:21;;;;;;;3.57;2.47;;;;;;;9.61;100.00;99095.63;5063072;28;20218;-82
2024/03/30 04:00:48;;;;;;;3.50;3.20;;;;;;;9.59;100.00;99095.75;5061145;28;20242;-82
2024/03/30 04:03:14;;;;;;;3.00;2.70;;;;;;;9.56;100.00;99093.34;5060359;28;20252;-81
2024/03/30 04:05:40;;;;;;;2.67;2.47;;;;;;;9.54;100.00;99100.59;5062529;28;20203;-82
2024/03/30 04:08:08;;;;;;;2.87;2.67;;;;;;;9.52;100.00;99099.03;5063604;28;20206;-82
2024/03/30 04:10:35;;;;;;;4.00;3.00;;;;;;;9.49;100.00;99089.53;5064596;28;20216;-82
2024/03/30 04:13:00;;;;;;;3.53;3.03;;;;;;;9.44;100.00;99086.41;5058909;28;20804;-82
2024/03/30 04:15:27;;;;;;;4.07;2.90;;;;;;;9.42;100.00;99088.34;5065247;28;20225;-81
2024/03/30 04:17:53;;;;;;;3.30;3.00;;;;;;;9.39;100.00;99088.59;5070366;28;20746;-83
2024/03/30 04:20:19;;;;;;;3.50;2.87;;;;;;;9.36;100.00;99092.34;5062906;28;20250;-84
2024/03/30 04:22:45;;;;;;;3.80;3.37;;;;;;;9.33;100.00;99086.44;5065324;28;20271;-84
2024/03/30 04:25:13;;;;;;;3.20;2.90;;;;;;;9.29;100.00;99093.84;5064410;28;20753;-83
2024/03/30 04:27:40;;;;;;;3.73;3.20;;;;;;;9.28;100.00;99086.84;5070529;28;20205;-83
2024/03/30 04:30:10;;;;;;;4.90;2.60;;;;;;;9.25;100.00;99088.91;5064843;28;20205;-81
2024/03/30 04:32:35;;;;;;;3.37;2.90;;;;;;;9.23;100.00;99077.56;5062935;28;20221;-81
2024/03/30 04:35:03;;;;;;;4.03;3.00;;;;;;;9.19;100.00;99076.97;5066454;28;20226;-84
2024/03/30 04:37:29;;;;;;;3.67;2.87;;;;;;;9.18;100.00;99085.06;5065757;28;20229;-84
2024/03/30 04:39:56;;;;;;;2.97;2.63;;;;;;;9.16;100.00;99077.22;5060524;28;20212;-82
2024/03/30 04:42:24;;;;;;;3.87;3.03;;;;;;;9.14;100.00;99070.34;5064462;28;20220;-84
2024/03/30 04:44:50;;;;;;;2.80;2.60;;;;;;;9.15;100.00;99072.03;5064693;28;20843;-83
2024/03/30 04:47:17;;;;;;;3.03;2.40;;;;;;;9.12;100.00;99064.34;5060018;28;20244;-84
2024/03/30 04:49:42;;;;;;;2.90;2.60;;;;;;;9.08;100.00;99062.91;5066698;28;20206;-84
2024/03/30 04:52:11;;;;;;;3.23;2.33;;;;;;;9.06;100.00;99065.66;5066061;28;20260;-84
2024/03/30 04:54:37;;;;;;;3.63;2.17;;;;;;;9.04;100.00;99057.81;5063111;28;20222;-83
2024/03/30 04:57:03;;;;;;;2.60;2.20;;;;;;;9.02;100.00;99054.44;5064463;28;20678;-83
2024/03/30 04:59:33;;;;;;;2.23;2.03;;;;;;;8.99;100.00;99046.72;5062376;28;20206;-83
2024/03/30 05:02:00;;;;;;;2.77;2.03;;;;;;;8.96;100.00;99041.66;5058332;28;20199;-83
2024/03/30 05:04:25;;;;;;;2.67;2.10;;;;;;;8.98;100.00;99047.69;5059871;28;20316;-84
2024/03/30 05:06:52;;;;;;;2.20;2.00;;;;;;;8.97;100.00;99040.69;5059730;28;20239;-83
2024/03/30 05:09:17;;;;;;;2.70;2.37;;;;;;;8.95;100.00;99037.34;5059039;28;20283;-83
2024/03/30 05:11:45;;;;;;;3.27;2.70;;;;;;;8.93;100.00;99044.59;5062861;28;20201;-83
2024/03/30 05:14:11;;;;;;;2.80;2.60;;;;;;;8.92;100.00;99032.28;5062073;28;20252;-83
2024/03/30 05:16:40;;;;;;;2.70;2.50;;;;;;;8.89;100.00;99031.69;5064435;28;20233;-82
2024/03/30 05:20:42;;;;;;;4.03;2.50;;;;;;;8.85;100.00;99036.41;5062997;28;20279;-83
2024/03/30 05:21:53;;;;;;;2.60;2.40;;;;;;;8.84;100.00;99040.03;5067854;28;20279;-82
2024/03/30 05:24:22;;;;;;;3.40;2.73;;;;;;;8.83;100.00;99038.34;5063468;28;20229;-83
2024/03/30 05:26:48;;;;;;;2.83;2.60;;;;;;;8.84;100.00;99034.72;5064240;28;20210;-83
2024/03/30 05:29:14;;;;;;;3.70;3.10;;;;;;;8.82;100.00;99031.34;5065693;28;20255;-83
2024/03/30 05:31:41;;;;;;;3.53;3.00;;;;;;;8.85;100.00;99048.84;5063382;28;20209;-83
2024/03/30 05:34:09;;;;;;;3.23;2.93;;;;;;;8.85;100.00;99049.69;5060256;28;20245;-84
2024/03/30 05:36:35;;;;;;;3.20;2.90;;;;;;;8.88;100.00;99045.94;5062800;28;20244;-83
2024/03/30 05:39:02;;;;;;;3.73;3.10;;;;;;;8.87;100.00;99045.09;5060892;28;20205;-83
2024/03/30 05:41:27;;;;;;;3.10;2.80;;;;;;;8.87;100.00;99034.47;5065852;28;20216;-83
2024/03/30 05:43:54;;;;;;;3.40;3.10;;;;;;;8.87;100.00;99033.63;5062861;28;20312;-83
2024/03/30 05:46:22;;;;;;;3.57;3.27;;;;;;;8.88;100.00;99035.31;5063918;28;20209;-83
2024/03/30 05:48:51;;;;;;;3.00;2.80;;;;;;;8.90;100.00;99036.03;5061106;28;20197;-83
2024/03/30 05:51:17;;;;;;;2.90;2.63;;;;;;;8.89;100.00;99027.22;5061350;28;20202;-83
2024/03/30 05:53:46;;;;;;;2.93;2.63;;;;;;;8.87;100.00;99038.94;5065327;28;20228;-84
2024/03/30 05:56:13;;;;;;;3.23;2.90;;;;;;;8.88;100.00;99045.94;5063552;28;20205;-84
2024/03/30 05:58:39;;;;;;;4.27;3.20;;;;;;;8.87;100.00;99034.47;5056283;28;20217;-84
2024/03/30 06:01:05;;;;;;;3.27;2.90;;;;;;;8.89;100.00;99034.34;5060927;28;20241;-83
2024/03/30 06:03:31;;;;;;;4.53;2.90;;;;;;;8.90;100.00;99049.31;5058093;28;20230;-82
2024/03/30 06:05:58;;;;;;;3.00;2.70;;;;;;;8.91;100.00;99046.53;5061109;28;20201;-82
2024/03/30 06:08:25;;;;;;;3.93;3.40;;;;;;;8.91;100.00;99035.91;5061643;28;20264;-82
2024/03/30 06:10:51;;;;;;;4.10;2.87;;;;;;;8.91;100.00;99032.41;5061572;28;20206;-82
2024/03/30 06:13:17;;;;;;;3.97;3.10;;;;;;;8.89;100.00;99029.88;5060773;28;20197;-82
2024/03/30 06:15:43;;;;;;;5.00;3.70;;;;;;;8.88;100.00;99041.47;5062799;28;20194;-83
2024/03/30 06:18:10;;;;;;;3.33;2.90;;;;;;;8.88;100.00;99036.16;5059369;28;20236;-82
2024/03/30 06:20:36;;;;;;;3.53;3.20;;;;;;;8.90;100.00;99030.72;5056548;28;20241;-82
2024/03/30 06:23:04;;;;;;;4.17;3.77;;;;;;;8.91;100.00;99030.59;5061736;28;20206;-83
2024/03/30 06:25:29;;;;;;;4.00;3.50;;;;;;;8.90;100.00;99026.25;5057889;28;20263;-82
2024/03/30 06:27:56;;;;;;;4.87;3.27;;;;;;;8.94;100.00;99029.50;5061910;28;20209;-83
2024/03/30 06:30:22;;;;;;;5.03;3.27;;;;;;;8.95;100.00;99020.59;5053698;28;20228;-82
2024/03/30 06:32:49;;;;;;;5.30;3.40;;;;;;;8.98;100.00;99037.06;5057902;28;20206;-83
2024/03/30 06:35:14;;;;;;;5.10;3.53;;;;;;;8.99;100.00;99044.06;5061767;28;20290;-82
2024/03/30 06:37:41;;;;;;;4.13;3.70;;;;;;;9.03;100.00;99034.91;5058108;28;20222;-83
2024/03/30 06:45:38;;;;;;;4.30;3.53;;;;;;;9.17;100.00;99043.53;5054984;28;20216;-82
2024/03/30 06:48:05;;;;;;;4.03;3.63;;;;;;;9.21;100.00;99043.16;5058476;28;20222;-82
2024/03/30 06:50:32;;;;;;;4.27;3.87;;;;;;;9.24;100.00;99053.53;5054511;28;20602;-83
2024/03/30 06:52:58;;;;;;;5.33;3.90;;;;;;;9.28;100.00;99054.13;5059938;28;20276;-82
2024/03/30 06:55:25;;;;;;;3.73;3.33;;;;;;;9.36;100.00;99051.66;5059087;28;20245;-83
2024/03/30 06:57:52;;;;;;;4.43;3.20;;;;;;;9.40;100.00;99055.75;5057314;28;20236;-83
2024/03/30 07:00:19;;;;;;;5.23;3.40;;;;;;;9.46;100.00;99041.09;5060097;28;20201;-83
2024/03/30 07:02:45;;;;;;;5.53;4.37;;;;;;;9.50;100.00;99032.72;5056014;28;20661;-83
2024/03/30 07:05:12;;;;;;;3.47;3.17;;;;;;;9.56;100.00;99026.06;5061695;28;20313;-83
2024/03/30 07:07:37;;;;;;;4.40;3.37;;;;;;;9.63;100.00;99022.75;5055856;28;20229;-83
2024/03/30 07:10:05;;;;;;;5.03;3.10;;;;;;;9.70;100.00;99029.22;5058744;28;20209;-82
2024/03/30 07:12:33;;;;;;;3.57;2.80;;;;;;;9.78;100.00;99022.41;5056800;28;20757;-83
2024/03/30 07:14:59;;;;;;;4.30;3.10;;;;;;;9.84;100.00;99033.38;5059884;28;20217;-83
2024/03/30 07:17:27;;;;;;;4.23;2.70;;;;;;;9.93;100.00;99037.03;5053771;28;20245;-83
2024/03/30 07:19:53;;;;;;;3.53;2.87;;;;;;;9.96;100.00;99037.63;5055285;28;20216;-83
2024/03/30 07:22:19;;;;;;;3.30;2.67;;;;;;;10.03;100.00;99037.97;5059955;28;20209;-83
2024/03/30 07:24:47;;;;;;;3.77;2.63;;;;;;;10.10;100.00;99025.78;5063276;28;20251;-83
2024/03/30 07:27:13;;;;;;;2.60;2.40;;;;;;;10.15;100.00;99020.06;5057461;28;20598;-82
2024/03/30 07:29:41;;;;;;;4.03;2.63;;;;;;;10.21;100.00;99015.06;5059648;28;20206;-82
2024/03/30 07:32:07;;;;;;;3.40;2.57;;;;;;;10.27;100.00;99016.38;5059042;28;20566;-82
2024/03/30 07:34:33;;;;;;;3.17;2.60;;;;;;;10.37;100.00;99018.09;5058835;28;20267;-82
2024/03/30 07:36:59;;;;;;;3.93;2.43;;;;;;;10.46;100.00;99015.59;5057141;28;20197;-83
2024/03/30 07:39:26;;;;;;;3.03;2.67;;;;;;;10.55;100.00;99015.63;5050774;28;20206;-81
2024/03/30 07:41:51;;;;;;;2.93;2.57;;;;;;;10.67;100.00;99008.34;5043488;28;20734;-80
2024/03/30 07:44:20;;;;;;;3.23;2.60;;;;;;;10.72;100.00;99012.28;5041716;28;20233;-80
2024/03/30 07:46:48;;;;;;;2.73;2.53;;;;;;;10.83;100.00;99005.97;5044420;28;20757;-80
2024/03/30 07:49:15;;;;;;;2.90;2.20;;;;;;;10.91;100.00;99006.16;5049998;28;20201;-81
2024/03/30 07:51:40;;;;;;;3.17;2.87;;;;;;;10.98;100.00;99012.56;5044511;28;20642;-82
2024/03/30 07:54:07;;;;;;;4.40;2.70;;;;;;;11.06;100.00;99009.22;5044266;28;20218;-81
2024/03/30 07:56:33;;;;;;;2.83;2.53;;;;;;;11.16;100.00;99025.19;5050358;28;20226;-82
2024/03/30 07:59:01;;;;;;;3.60;2.43;;;;;;;11.27;100.00;99022.41;5045136;28;20674;-82
2024/03/30 08:01:29;;;;;;;2.60;1.83;;;;;;;11.41;100.00;99013.97;5047058;28;20231;-83
2024/03/30 08:03:57;;;;;;;3.50;2.30;;;;;;;11.56;100.00;99012.56;5050392;28;20227;-84
2024/03/30 08:06:22;;;;;;;2.60;1.90;;;;;;;11.74;100.00;99016.16;5059340;28;20242;-84
2024/03/30 08:08:49;;;;;;;3.97;1.80;;;;;;;11.92;100.00;99016.28;5057377;28;20197;-83
2024/03/30 08:11:15;;;;;;;4.30;1.80;;;;;;;12.09;100.00;99007.50;5058911;28;20212;-83
2024/03/30 08:13:42;;;;;;;6.03;1.67;;;;;;;12.25;100.00;99009.53;5060485;28;20229;-84
2024/03/30 08:16:07;;;;;;;5.03;1.70;;;;;;;12.36;100.00;99000.53;5059484;28;20271;-82
2024/03/30 08:18:34;;;;;;;4.47;1.20;;;;;;;12.41;100.00;98996.41;5058898;28;20226;-83
2024/03/30 08:21:03;;;;;;;5.40;1.30;;;;;;;12.48;100.00;99002.84;5056124;28;20206;-83
2024/03/30 08:23:30;;;;;;;6.70;1.00;;;;;;;12.66;100.00;98996.69;5055630;28;20647;-83
2024/03/30 08:25:56;;;;;;;4.07;1.40;;;;;;;12.80;99.80;98988.16;5056985;28;20216;-83
2024/03/30 08:28:23;;;;;;;3.17;1.10;;;;;;;12.95;97.60;98997.31;5057127;28;20201;-82
2024/03/30 08:30:49;;;;;;;4.27;1.27;;;;;;;13.11;95.11;98993.94;5056805;28;20202;-83
2024/03/30 08:33:16;;;;;;;5.00;1.47;;;;;;;13.25;94.67;98992.63;5058019;28;20792;-83
2024/03/30 08:35:51;;;;;;;4.80;1.60;;;;;;;13.36;93.38;98979.00;5054204;28;20216;-84
2024/03/30 08:38:19;;;;;;;7.77;2.37;;;;;;;13.52;91.12;98984.47;5055878;28;20209;-83
2024/03/30 08:40:45;;;;;;;7.83;2.13;;;;;;;13.66;90.94;98981.22;5052688;28;20207;-83
2024/03/30 08:43:11;;;;;;;7.20;2.33;;;;;;;13.83;91.41;98974.13;5054082;28;20255;-83
2024/03/30 08:45:37;;;;;;;8.43;1.20;;;;;;;13.99;89.72;98976.03;5047481;28;20233;-82
2024/03/30 08:48:04;;;;;;;7.53;1.83;;;;;;;14.16;87.89;98980.47;5053762;28;20672;-83
2024/03/30 08:50:30;;;;;;;7.30;1.60;;;;;;;14.32;87.68;98983.25;5051027;28;20248;-82
2024/03/30 08:52:57;;;;;;;9.03;2.13;;;;;;;14.50;86.02;98980.50;5055452;28;20210;-82
2024/03/30 08:55:24;;;;;;;8.37;1.87;;;;;;;14.66;82.86;98974.34;5048246;28;20253;-82
2024/03/30 08:57:50;;;;;;;15.47;2.27;;;;;;;14.79;79.97;98982.75;5048378;28;20301;-82
2024/03/30 09:00:16;;;;;;;10.43;1.90;;;;;;;14.89;79.33;98981.56;5050544;28;20205;-84
2024/03/30 09:02:43;;;;;;;15.33;3.30;;;;;;;15.02;77.31;98970.38;5055657;28;20217;-83
2024/03/30 09:05:09;;;;;;;8.73;2.10;;;;;;;15.12;78.82;98968.38;5050955;28;20226;-83
2024/03/30 09:07:36;;;;;;;11.07;2.83;;;;;;;15.27;78.35;98979.25;5055034;28;20198;-83
2024/03/30 09:10:02;;;;;;;9.77;2.00;;;;;;;15.40;77.29;98958.16;5051136;28;20253;-82
2024/03/30 09:12:32;;;;;;;12.10;2.33;;;;;;;15.53;76.52;98957.63;5057166;28;20230;-78
2024/03/30 09:14:58;;;;;;;8.40;1.73;;;;;;;15.68;75.90;98969.38;5048033;28;20723;-79
2024/03/30 09:17:24;;;;;;;11.47;2.40;;;;;;;15.81;74.12;98956.25;5050597;28;20213;-79
2024/03/30 09:19:50;;;;;;;11.63;2.10;;;;;;;15.92;72.15;98963.97;5049659;28;20249;-80
2024/03/30 09:22:17;;;;;;;14.20;2.37;;;;;;;15.99;72.24;98958.72;5038648;28;20668;-81
2024/03/30 09:24:43;;;;;;;12.60;2.20;;;;;;;16.08;72.81;98967.59;5039309;28;20263;-81
2024/03/30 09:27:09;;;;;;;14.53;2.50;;;;;;;16.15;71.68;98965.88;5039750;28;20208;-81
2024/03/30 09:29:36;;;;;;;11.60;2.40;;;;;;;16.25;70.45;98961.16;5039060;28;20251;-81
2024/03/30 09:32:03;;;;;;;15.13;3.13;;;;;;;16.32;69.03;98962.13;5038881;28;20208;-81
2024/03/30 09:34:29;;;;;;;16.10;3.40;;;;;;;16.45;69.06;98969.66;5038066;28;20278;-80
2024/03/30 09:36:56;;;;;;;15.57;3.43;;;;;;;16.52;68.42;98967.91;5039046;28;20224;-81
2024/03/30 09:39:21;;;;;;;17.70;2.97;;;;;;;16.61;68.09;98972.25;5039070;28;20671;-80
2024/03/30 09:41:52;;;;;;;16.47;2.87;;;;;;;16.67;68.25;98969.69;5037223;28;20209;-81
2024/03/30 09:44:18;;;;;;;14.50;4.17;;;;;;;16.75;68.90;98965.31;5048476;28;20486;-81
2024/03/30 09:46:47;;;;;;;17.63;3.50;;;;;;;16.85;67.67;98965.91;5048649;28;20285;-81
2024/03/30 09:49:14;;;;;;;14.13;2.33;;;;;;;16.91;66.75;98970.56;5049928;28;20270;-81
2024/03/30 09:51:43;;;;;;;13.23;2.30;;;;;;;17.00;67.71;98969.53;5046427;28;20202;-81
2024/03/30 09:54:11;;;;;;;16.83;3.53;;;;;;;17.05;66.20;98972.47;5047108;28;20246;-81
2024/03/30 09:56:42;;;;;;;13.70;3.00;;;;;;;17.04;64.90;98976.19;5048151;28;20199;-82
2024/03/30 09:59:10;;;;;;;18.70;4.63;;;;;;;17.09;66.39;98972.97;5044929;28;20257;-82
2024/03/30 10:01:37;;;;;;;14.03;3.30;;;;;;;17.16;66.32;98984.69;5049504;28;20677;-81
2024/03/30 10:04:04;;;;;;;15.70;3.57;;;;;;;17.16;64.50;98971.25;5045915;28;20308;-80
2024/03/30 10:06:37;;;;;;;16.27;3.40;;;;;;;17.24;66.39;98977.38;5038752;28;20325;-81
2024/03/30 10:09:08;;;;;;;13.27;3.27;;;;;;;17.32;65.38;98982.72;5048141;28;20203;-82
2024/03/30 10:11:37;;;;;;;21.73;3.40;;;;;;;17.33;64.14;98983.56;5050841;28;20257;-82
2024/03/30 10:14:12;;;;;;;17.30;3.83;;;;;;;17.38;66.35;98983.03;5047460;28;20314;-82
2024/03/30 10:16:39;;;;;;;12.50;2.93;;;;;;;17.42;64.37;98981.63;5050612;28;20729;-83
2024/03/30 10:19:06;;;;;;;19.30;3.50;;;;;;;17.47;65.04;98990.00;5049432;28;20979;-82
2024/03/30 10:21:34;;;;;;;15.30;3.30;;;;;;;17.54;65.83;98978.34;5048295;28;20211;-81
2024/03/30 10:24:00;;;;;;;14.70;3.43;;;;;;;17.62;63.70;98986.31;5048478;28;20787;-82
2024/03/30 10:26:38;;;;;;;17.77;4.40;;;;;;;17.67;62.07;98977.72;5047243;28;20203;-82
2024/03/30 10:29:08;;;;;;;18.67;4.20;;;;;;;17.71;60.28;98981.75;5042664;28;20676;-81
2024/03/30 10:31:42;;;;;;;17.13;3.40;;;;;;;17.75;60.45;98983.03;5049528;28;20213;-82
2024/03/30 10:34:12;;;;;;;19.13;3.77;;;;;;;17.82;59.97;98978.59;5050526;28;20227;-81
2024/03/30 10:36:41;;;;;;;16.60;4.23;;;;;;;17.88;60.18;98979.72;5050932;28;20235;-83
2024/03/30 10:39:06;;;;;;;26.73;6.57;;;;;;;17.91;60.23;98980.19;5051344;28;20239;-83
2024/03/30 10:41:46;;;;;;;;;;;;;;;;;;;;;
2024/03/30 11:17:04;;;;;;;20.30;3.77;;;;;;;18.15;56.95;99005.16;4767025;29;20264;-81
2024/03/30 11:19:38;;;;;;;24.73;5.53;;;;;;;18.19;58.18;99009.16;4858743;29;20346;-80
2024/03/30 11:22:13;;;;;;;33.00;5.37;;;;;;;18.22;57.88;99001.56;4984179;28;20211;-81
2024/03/30 11:24:52;;;;;;;25.33;5.37;;;;;;;18.26;59.23;98999.34;5053905;28;20719;-81
2024/03/30 11:27:24;;;;;;;31.60;4.97;;;;;;;18.30;60.99;99004.13;5049806;28;20213;-81
2024/03/30 11:29:56;;;;;;;27.20;5.60;;;;;;;18.35;62.17;99006.28;5050599;28;20192;-82
2024/03/30 11:32:27;;;;;;;33.20;5.70;;;;;;;18.35;61.70;98996.34;5053348;28;20223;-80
2024/03/30 11:35:00;;;;;;;23.47;5.83;;;;;;;18.34;60.60;98975.81;5050403;28;20267;-82
2024/03/30 11:37:32;;;;;;;32.60;4.97;;;;;;;18.35;61.94;98984.72;5050060;28;20204;-81
2024/03/30 11:40:10;;;;;;;24.40;5.90;;;;;;;18.35;62.52;98977.47;5052914;28;20274;-82
2024/03/30 11:42:50;;;;;;;32.07;5.77;;;;;;;18.35;63.07;98974.78;5054559;28;20274;-80
2024/03/30 11:45:30;;;;;;;32.77;5.37;;;;;;;18.36;62.30;98970.22;5046654;28;20238;-79
2024/03/30 11:48:00;;;;;;;32.07;4.23;;;;;;;18.35;64.07;98952.38;5046264;28;20214;-80
2024/03/30 11:50:26;;;;;;;27.50;5.27;;;;;;;18.33;64.73;98947.19;5051363;28;20213;-84
2024/03/30 11:52:53;;;;;;;24.30;4.60;;;;;;;18.30;64.53;98933.22;5048258;28;20313;-84
2024/03/30 11:55:26;;;;;;;29.27;6.27;;;;;;;18.28;63.62;98932.59;5050411;28;20223;-81
2024/03/30 11:58:03;;;;;;;22.00;4.70;;;;;;;18.18;62.52;98940.97;5048985;28;20211;-83
2024/03/30 12:00:30;;;;;;;25.40;4.73;;;;;;;18.14;63.33;98941.53;5050020;28;20820;-81
2024/03/30 12:02:58;;;;;;;31.13;6.63;;;;;;;18.11;64.09;98958.06;5044234;28;20291;-83
2024/03/30 12:05:29;;;;;;;27.43;5.37;;;;;;;18.08;65.25;98955.75;5048220;28;20701;-83
2024/03/30 12:07:56;;;;;;;25.73;5.70;;;;;;;18.03;65.28;98964.41;5047572;28;20208;-84
2024/03/30 12:10:23;;;;;;;27.30;4.70;;;;;;;17.98;65.78;98964.94;5052057;28;20198;-83
2024/03/30 12:12:57;;;;;;;23.50;4.73;;;;;;;17.92;66.30;98954.06;5049509;28;20299;-82
2024/03/30 12:15:25;;;;;;;29.17;4.73;;;;;;;17.88;66.33;98960.88;5048956;28;20224;-81
2024/03/30 12:17:51;;;;;;;31.63;5.17;;;;;;;17.85;66.50;98953.97;5048819;28;20211;-83